createdAt,value
2018-03-21T00:01:45.080Z,80.76
2018-03-21T00:04:13.796Z,81.33
2018-03-21T00:06:42.465Z,81.95
2018-03-21T00:09:11.819Z,83.12
2018-03-21T00:11:40.391Z,83.19
2018-03-21T00:14:11.322Z,83.21
2018-03-21T00:16:40.283Z,82.80
2018-03-21T00:19:08.881Z,82.87
2018-03-21T00:21:37.560Z,82.29
2018-03-21T00:24:07.041Z,82.14
2018-03-21T00:26:35.776Z,82.23
2018-03-21T00:29:04.450Z,81.53
2018-03-21T00:31:33.106Z,82.35
2018-03-21T00:34:03.297Z,82.46
2018-03-21T00:36:31.903Z,83.56
2018-03-21T00:39:00.651Z,84.25
2018-03-21T00:41:29.267Z,84.27
2018-03-21T00:44:00.158Z,84.51
2018-03-21T00:46:29.310Z,84.63
2018-03-21T00:48:57.820Z,84.56
2018-03-21T00:51:26.475Z,84.76
2018-03-21T00:53:55.086Z,84.17
2018-03-21T00:56:23.806Z,84.67
2018-03-21T00:58:52.609Z,84.16
2018-03-21T01:01:21.183Z,84.85
2018-03-21T01:03:50.536Z,84.04
2018-03-21T01:06:19.147Z,83.47
2018-03-21T01:08:47.854Z,83.21
2018-03-21T01:11:17.505Z,83.79
2018-03-21T01:13:46.494Z,83.13
2018-03-21T01:16:15.679Z,82.44
2018-03-21T01:18:45.229Z,82.57
2018-03-21T01:21:13.911Z,82.46
2018-03-21T01:23:43.309Z,82.77
2018-03-21T01:26:11.926Z,82.40
2018-03-21T01:28:40.498Z,82.22
2018-03-21T01:31:09.208Z,82.09
2018-03-21T01:33:37.891Z,80.97
2018-03-21T01:36:06.632Z,81.52
2018-03-21T01:38:35.214Z,81.73
2018-03-21T01:41:03.877Z,81.35
2018-03-21T01:43:33.305Z,81.31
2018-03-21T01:46:03.159Z,81.25
2018-03-21T01:48:32.015Z,81.76
2018-03-21T01:51:00.635Z,81.92
2018-03-21T01:53:29.194Z,82.46
2018-03-21T01:55:57.757Z,82.89
2018-03-21T01:58:26.344Z,83.18
2018-03-21T02:00:54.896Z,82.98
2018-03-21T02:03:23.606Z,83.39
2018-03-21T02:05:52.325Z,83.48
2018-03-21T02:08:20.909Z,83.62
2018-03-21T02:10:49.617Z,83.53
2018-03-21T02:13:18.146Z,83.19
2018-03-21T02:15:46.889Z,82.90
2018-03-21T02:18:15.691Z,83.07
2018-03-21T02:20:44.816Z,82.84
2018-03-21T02:23:14.187Z,81.12
2018-03-21T02:25:42.852Z,81.82
2018-03-21T02:28:11.472Z,82.41
2018-03-21T02:30:40.866Z,82.54
2018-03-21T02:33:09.488Z,82.14
2018-03-21T02:35:38.100Z,82.13
2018-03-21T02:38:07.428Z,82.10
2018-03-21T02:40:36.915Z,82.29
2018-03-21T02:43:05.609Z,81.08
2018-03-21T02:45:34.269Z,81.45
2018-03-21T02:48:03.853Z,81.34
2018-03-21T02:50:32.710Z,81.27
2018-03-21T02:53:02.717Z,80.91
2018-03-21T02:55:31.348Z,80.58
2018-03-21T02:58:00.049Z,80.82
2018-03-21T03:00:29.446Z,80.70
2018-03-21T03:02:58.067Z,81.39
2018-03-21T03:05:26.655Z,80.58
2018-03-21T03:07:55.237Z,80.77
2018-03-21T03:10:23.931Z,80.73
2018-03-21T03:12:52.496Z,80.84
2018-03-21T03:15:21.056Z,80.13
2018-03-21T03:17:49.816Z,79.93
2018-03-21T03:20:18.878Z,80.18
2018-03-21T03:22:48.297Z,80.37
2018-03-21T03:25:17.151Z,80.20
2018-03-21T03:27:45.798Z,80.25
2018-03-21T03:30:14.534Z,79.26
2018-03-21T03:32:43.173Z,79.95
2018-03-21T03:35:11.843Z,80.13
2018-03-21T03:37:40.415Z,81.27
2018-03-21T03:40:09.103Z,80.89
2018-03-21T03:42:38.564Z,80.10
2018-03-21T03:45:07.205Z,80.60
2018-03-21T03:47:35.829Z,79.56
2018-03-21T03:50:04.499Z,80.10
2018-03-21T03:52:33.125Z,79.78
2018-03-21T03:55:01.989Z,78.58
2018-03-21T03:57:32.195Z,78.92
2018-03-21T04:00:00.846Z,78.61
2018-03-21T04:02:29.429Z,78.61
2018-03-21T04:04:58.177Z,78.68
2018-03-21T04:07:26.785Z,78.91
2018-03-21T04:09:55.481Z,77.87
2018-03-21T04:12:24.053Z,78.09
2018-03-21T04:14:52.681Z,77.95
2018-03-21T04:17:21.203Z,78.70
2018-03-21T04:19:49.940Z,78.40
2018-03-21T04:22:18.570Z,78.68
2018-03-21T04:24:47.981Z,78.53
2018-03-21T04:27:16.976Z,78.84
2018-03-21T04:29:46.192Z,78.78
2018-03-21T04:32:15.100Z,79.18
2018-03-21T04:34:43.839Z,78.80
2018-03-21T04:37:12.492Z,78.58
2018-03-21T04:39:41.105Z,78.44
2018-03-21T04:42:10.128Z,78.34
2018-03-21T04:44:38.908Z,78.41
2018-03-21T04:47:16.652Z,78.33
2018-03-21T04:49:45.266Z,78.46
2018-03-21T04:52:14.431Z,78.53
2018-03-21T04:54:43.494Z,78.90
2018-03-21T04:57:12.591Z,79.29
2018-03-21T04:59:41.289Z,78.90
2018-03-21T05:02:09.856Z,79.21
2018-03-21T05:04:38.518Z,78.69
2018-03-21T05:07:07.090Z,78.64
2018-03-21T05:09:35.719Z,78.46
2018-03-21T05:12:04.339Z,78.55
2018-03-21T05:14:32.990Z,78.22
2018-03-21T05:17:02.453Z,77.77
2018-03-21T05:19:31.177Z,77.48
2018-03-21T05:21:59.810Z,78.06
2018-03-21T05:24:28.706Z,77.96
2018-03-21T05:26:57.809Z,77.92
2018-03-21T05:29:27.587Z,78.01
2018-03-21T05:31:56.979Z,77.94
2018-03-21T05:34:25.593Z,77.52
2018-03-21T05:36:54.428Z,77.12
2018-03-21T05:39:23.010Z,77.37
2018-03-21T05:41:51.682Z,77.70
2018-03-21T05:44:20.304Z,78.00
2018-03-21T05:46:48.926Z,76.80
2018-03-21T05:49:17.593Z,76.39
2018-03-21T05:51:47.120Z,76.62
2018-03-21T05:54:15.739Z,75.99
2018-03-21T05:56:44.663Z,75.72
2018-03-21T05:59:14.688Z,76.09
2018-03-21T06:01:43.587Z,76.66
2018-03-21T06:04:12.228Z,76.57
2018-03-21T06:06:40.809Z,76.36
2018-03-21T06:09:09.449Z,76.72
2018-03-21T06:11:40.386Z,76.12
2018-03-21T06:14:08.960Z,75.73
2018-03-21T06:16:37.600Z,75.86
2018-03-21T06:19:06.392Z,73.93
2018-03-21T06:21:35.970Z,73.75
2018-03-21T06:24:04.691Z,72.77
2018-03-21T06:26:33.324Z,71.57
2018-03-21T06:29:02.971Z,72.44
2018-03-21T06:31:31.881Z,70.84
2018-03-21T06:34:00.579Z,71.42
2018-03-21T06:36:29.260Z,72.46
2018-03-21T06:38:57.954Z,72.19
2018-03-21T06:41:27.319Z,72.25
2018-03-21T06:43:56.015Z,71.98
2018-03-21T06:46:24.549Z,71.25
2018-03-21T06:48:53.133Z,68.38
2018-03-21T06:51:21.824Z,68.12
2018-03-21T06:53:50.401Z,68.52
2018-03-21T06:56:20.003Z,67.85
2018-03-21T06:58:48.698Z,68.05
2018-03-21T07:01:17.998Z,68.52
2018-03-21T07:03:47.182Z,68.08
2018-03-21T07:06:16.573Z,66.67
2018-03-21T07:08:45.322Z,65.13
2018-03-21T07:11:14.874Z,65.65
2018-03-21T07:14:01.414Z,65.68
2018-03-21T07:16:44.135Z,65.01
2018-03-21T07:19:13.042Z,66.47
2018-03-21T07:21:41.913Z,66.91
2018-03-21T07:24:10.528Z,67.60
2018-03-21T07:26:39.114Z,67.72
2018-03-21T07:29:07.734Z,67.66
2018-03-21T07:31:36.527Z,67.90
2018-03-21T07:34:05.266Z,67.24
2018-03-21T07:36:34.668Z,67.15
2018-03-21T07:39:04.383Z,66.88
2018-03-21T07:41:33.302Z,66.25
2018-03-21T07:44:02.053Z,65.49
2018-03-21T07:46:31.348Z,65.03
2018-03-21T07:49:00.130Z,64.25
2018-03-21T07:51:28.881Z,64.56
2018-03-21T07:53:57.589Z,64.10
2018-03-21T07:56:26.300Z,64.25
2018-03-21T07:58:54.901Z,63.07
2018-03-21T08:01:23.708Z,62.43
2018-03-21T08:03:52.416Z,63.26
2018-03-21T08:06:21.061Z,61.88
2018-03-21T08:08:49.848Z,62.37
2018-03-21T08:11:19.236Z,61.96
2018-03-21T08:13:48.642Z,61.21
2018-03-21T08:16:17.215Z,62.13
2018-03-21T08:18:45.742Z,61.93
2018-03-21T08:21:15.167Z,62.08
2018-03-21T08:23:44.723Z,60.55
2018-03-21T08:26:13.374Z,60.58
2018-03-21T08:28:42.041Z,60.00
2018-03-21T08:31:10.645Z,60.64
2018-03-21T08:33:39.382Z,60.30
2018-03-21T08:36:08.093Z,60.63
2018-03-21T08:38:36.792Z,59.90
2018-03-21T08:41:05.517Z,60.70
2018-03-21T08:43:34.806Z,59.74
2018-03-21T08:46:04.089Z,60.57
2018-03-21T08:48:32.864Z,60.54
2018-03-21T08:51:01.548Z,59.57
2018-03-21T08:53:30.055Z,58.32
2018-03-21T08:55:58.658Z,59.37
2018-03-21T08:58:27.235Z,58.78
2018-03-21T09:00:55.940Z,58.43
2018-03-21T09:03:24.637Z,58.41
2018-03-21T09:05:53.328Z,58.73
2018-03-21T09:08:22.783Z,58.24
2018-03-21T09:10:51.548Z,54.82
2018-03-21T09:13:21.007Z,53.34
2018-03-21T09:19:25.770Z,53.45
2018-03-21T09:21:55.809Z,55.30
2018-03-21T09:24:25.211Z,56.10
2018-03-21T09:26:53.813Z,57.05
2018-03-21T09:29:22.367Z,58.14
2018-03-21T09:31:51.813Z,59.78
2018-03-21T09:34:20.453Z,59.97
2018-03-21T09:36:49.781Z,60.45
2018-03-21T09:39:18.363Z,60.88
2018-03-21T09:41:46.909Z,61.24
2018-03-21T09:44:15.620Z,59.93
2018-03-21T09:46:44.240Z,59.88
2018-03-21T09:49:12.962Z,60.62
2018-03-21T09:51:41.636Z,58.78
2018-03-21T09:54:10.940Z,59.77
2018-03-21T09:56:40.273Z,59.60
2018-03-21T09:59:09.189Z,60.91
2018-03-21T10:01:38.644Z,59.97
2018-03-21T10:04:08.165Z,59.91
2018-03-21T10:06:37.587Z,59.71
2018-03-21T10:09:07.152Z,59.31
2018-03-21T10:11:35.847Z,60.17
2018-03-21T10:14:04.572Z,60.11
2018-03-21T10:16:33.409Z,60.49
2018-03-21T10:19:02.820Z,60.22
2018-03-21T10:21:31.697Z,59.78
2018-03-21T10:24:00.569Z,59.30
2018-03-21T10:26:29.579Z,59.61
2018-03-21T10:28:58.530Z,59.43
2018-03-21T10:31:27.169Z,59.96
2018-03-21T10:33:55.730Z,60.19
2018-03-21T10:36:25.194Z,59.34
2018-03-21T10:38:54.217Z,58.68
2018-03-21T10:41:22.937Z,57.98
2018-03-21T10:43:51.578Z,59.13
2018-03-21T10:46:20.920Z,59.33
2018-03-21T10:48:49.566Z,59.19
2018-03-21T10:51:18.229Z,59.13
2018-03-21T10:53:46.959Z,58.25
2018-03-21T10:56:15.752Z,58.74
2018-03-21T10:58:45.483Z,59.17
2018-03-21T11:01:20.008Z,59.72
2018-03-21T11:03:56.960Z,60.57
2018-03-21T11:06:25.686Z,58.95
2018-03-21T11:08:54.375Z,59.36
2018-03-21T11:11:23.069Z,59.51
2018-03-21T11:13:51.695Z,59.70
2018-03-21T11:16:20.640Z,59.07
2018-03-21T11:18:50.778Z,58.18
2018-03-21T11:21:20.502Z,57.68
2018-03-21T11:23:49.970Z,58.34
2018-03-21T11:26:18.488Z,57.53
2018-03-21T11:28:47.385Z,57.01
2018-03-21T11:31:15.980Z,56.24
2018-03-21T11:33:44.675Z,56.43
2018-03-21T11:36:13.312Z,56.05
2018-03-21T11:38:41.828Z,55.05
2018-03-21T11:41:10.530Z,54.71
2018-03-21T11:43:39.479Z,54.00
2018-03-21T11:46:08.906Z,54.56
2018-03-21T11:48:38.531Z,54.79
2018-03-21T11:51:09.323Z,52.85
2018-03-21T11:53:38.192Z,52.59
2018-03-21T11:56:07.610Z,53.02
2018-03-21T11:58:36.198Z,52.33
2018-03-21T12:01:04.934Z,51.50
2018-03-21T12:03:34.547Z,51.88
2018-03-21T12:06:03.453Z,51.33
2018-03-21T12:08:32.140Z,51.39
2018-03-21T12:11:00.737Z,51.76
2018-03-21T12:13:29.418Z,52.44
2018-03-21T12:15:58.219Z,52.68
2018-03-21T12:18:26.785Z,52.06
2018-03-21T12:20:55.676Z,51.44
2018-03-21T12:23:24.986Z,51.22
2018-03-21T12:25:53.876Z,52.02
2018-03-21T12:28:22.623Z,51.64
2018-03-21T12:30:51.473Z,52.52
2018-03-21T12:33:20.762Z,51.90
2018-03-21T12:35:49.345Z,50.57
2018-03-21T12:38:17.986Z,50.71
2018-03-21T12:40:46.507Z,51.20
2018-03-21T12:43:15.948Z,51.08
2018-03-21T12:45:44.588Z,51.51
2018-03-21T12:48:13.321Z,51.57
2018-03-21T12:50:42.993Z,51.39
2018-03-21T12:53:12.970Z,50.03
2018-03-21T12:55:42.248Z,49.81
2018-03-21T12:58:11.184Z,49.99
2018-03-21T13:00:39.889Z,49.50
2018-03-21T13:03:09.255Z,48.58
2018-03-21T13:05:37.820Z,49.20
2018-03-21T13:08:06.350Z,50.21
2018-03-21T13:10:35.035Z,50.36
2018-03-21T13:13:03.758Z,50.37
2018-03-21T13:15:32.650Z,50.62
2018-03-21T13:18:02.087Z,50.55
2018-03-21T13:20:30.816Z,50.75
2018-03-21T13:22:59.629Z,50.45
2018-03-21T13:25:29.222Z,50.14
2018-03-21T13:27:59.667Z,50.51
2018-03-21T13:30:28.940Z,50.71
2018-03-21T13:32:58.452Z,50.53
2018-03-21T13:35:27.064Z,49.88
2018-03-21T13:37:55.706Z,50.12
2018-03-21T13:40:24.398Z,49.92
2018-03-21T13:42:53.898Z,49.84
2018-03-21T13:45:22.526Z,50.00
2018-03-21T13:47:51.991Z,50.79
2018-03-21T13:50:29.401Z,49.55
2018-03-21T13:52:58.718Z,48.95
2018-03-21T13:55:28.330Z,49.20
2018-03-21T13:57:57.907Z,48.29
2018-03-21T14:00:26.655Z,47.51
2018-03-21T14:02:55.297Z,47.68
2018-03-21T14:05:24.136Z,47.34
2018-03-21T14:07:52.877Z,48.81
2018-03-21T14:10:21.643Z,49.06
2018-03-21T14:12:50.359Z,49.10
2018-03-21T14:15:19.455Z,49.27
2018-03-21T14:17:49.016Z,49.43
2018-03-21T14:20:18.408Z,49.42
2018-03-21T14:22:47.761Z,48.42
2018-03-21T14:25:18.519Z,48.50
2018-03-21T14:27:47.196Z,48.95
2018-03-21T14:30:16.083Z,49.58
2018-03-21T14:32:44.867Z,49.28
2018-03-21T14:35:13.579Z,49.14
2018-03-21T14:37:42.154Z,49.44
2018-03-21T14:40:11.532Z,48.88
2018-03-21T14:42:40.215Z,49.32
2018-03-21T14:45:09.050Z,49.34
2018-03-21T14:47:37.829Z,49.07
2018-03-21T14:50:06.731Z,49.11
2018-03-21T14:52:35.492Z,48.74
2018-03-21T14:55:05.171Z,48.84
2018-03-21T14:57:34.350Z,49.18
2018-03-21T15:00:02.971Z,48.73
2018-03-21T15:02:32.611Z,49.16
2018-03-21T15:05:01.424Z,48.54
2018-03-21T15:07:30.122Z,48.88
2018-03-21T15:09:59.576Z,49.41
2018-03-21T15:12:28.192Z,49.24
2018-03-21T15:14:57.094Z,48.74
2018-03-21T15:17:25.778Z,48.13
2018-03-21T15:19:55.367Z,49.28
2018-03-21T15:22:24.070Z,48.63
2018-03-21T15:24:53.202Z,49.25
2018-03-21T15:27:23.423Z,49.33
2018-03-21T15:29:52.358Z,49.38
2018-03-21T15:32:21.077Z,48.83
2018-03-21T15:34:49.808Z,49.48
2018-03-21T15:37:19.286Z,49.56
2018-03-21T15:39:48.255Z,49.82
2018-03-21T15:42:17.693Z,50.48
2018-03-21T15:44:47.186Z,50.42
2018-03-21T15:47:16.654Z,50.60
2018-03-21T15:49:45.424Z,50.25
2018-03-21T15:52:14.982Z,50.53
2018-03-21T15:54:44.065Z,50.66
2018-03-21T15:57:13.086Z,51.37
2018-03-21T15:59:42.843Z,51.56
2018-03-21T16:02:11.873Z,51.83
2018-03-21T16:04:40.693Z,51.80
2018-03-21T16:07:09.384Z,52.10
2018-03-21T16:09:39.113Z,51.96
2018-03-21T16:12:08.403Z,52.33
2018-03-21T16:14:37.925Z,52.42
2018-03-21T16:17:07.887Z,52.69
2018-03-21T16:19:36.642Z,53.21
2018-03-21T16:22:05.361Z,52.99
2018-03-21T16:24:34.161Z,52.82
2018-03-21T16:27:04.668Z,53.42
2018-03-21T16:29:33.702Z,53.40
2018-03-21T16:32:03.312Z,54.07
2018-03-21T16:34:32.269Z,54.41
2018-03-21T16:37:01.069Z,54.27
2018-03-21T16:39:29.812Z,54.24
2018-03-21T16:41:59.242Z,54.48
2018-03-21T16:44:28.599Z,54.57
2018-03-21T16:46:57.409Z,55.29
2018-03-21T16:49:26.436Z,55.23
2018-03-21T16:51:56.190Z,55.49
2018-03-21T16:54:25.590Z,55.54
2018-03-21T16:56:55.194Z,55.24
2018-03-21T16:59:25.175Z,55.62
2018-03-21T17:01:54.991Z,55.93
2018-03-21T17:04:24.550Z,56.74
2018-03-21T17:06:53.180Z,57.23
2018-03-21T17:09:22.768Z,57.48
2018-03-21T17:11:51.603Z,57.52
2018-03-21T17:14:21.229Z,57.97
2018-03-21T17:16:50.838Z,58.14
2018-03-21T17:19:19.713Z,58.42
2018-03-21T17:21:48.583Z,58.88
2018-03-21T17:24:18.950Z,58.89
2018-03-21T17:26:48.639Z,58.47
2018-03-21T17:29:18.513Z,59.41
2018-03-21T17:31:47.571Z,59.22
2018-03-21T17:34:16.744Z,59.83
2018-03-21T17:36:45.595Z,60.12
2018-03-21T17:39:14.549Z,60.72
2018-03-21T17:41:44.339Z,60.99
2018-03-21T17:44:13.299Z,61.50
2018-03-21T17:46:43.253Z,61.45
2018-03-21T17:49:12.947Z,61.14
2018-03-21T17:51:42.711Z,61.82
2018-03-21T17:54:12.655Z,62.16
2018-03-21T17:56:41.900Z,62.24
2018-03-21T17:59:11.035Z,63.25
2018-03-21T18:01:40.087Z,62.89
2018-03-21T18:04:09.824Z,63.00
2018-03-21T18:06:39.488Z,62.85
2018-03-21T18:09:08.484Z,63.54
2018-03-21T18:11:37.456Z,63.00
2018-03-21T18:14:06.529Z,62.96
2018-03-21T18:16:35.601Z,62.83
2018-03-21T18:19:05.937Z,63.45
2018-03-21T18:21:36.768Z,64.02
2018-03-21T18:24:06.297Z,63.23
2018-03-21T18:26:36.352Z,63.47
2018-03-21T18:29:05.434Z,63.28
2018-03-21T18:31:34.543Z,63.14
2018-03-21T18:34:04.177Z,62.85
2018-03-21T18:36:34.408Z,63.11
2018-03-21T18:39:04.347Z,62.67
2018-03-21T18:41:33.676Z,62.81
2018-03-21T18:44:02.826Z,62.45
2018-03-21T18:46:33.632Z,62.16
2018-03-21T18:49:03.817Z,62.53
2018-03-21T18:51:32.825Z,62.42
2018-03-21T18:54:01.860Z,62.24
2018-03-21T18:56:31.680Z,62.29
2018-03-21T18:59:00.629Z,61.99
2018-03-21T19:01:29.806Z,61.24
2018-03-21T19:03:59.910Z,61.78
2018-03-21T19:06:29.068Z,61.32
2018-03-21T19:09:01.361Z,61.18
2018-03-21T19:11:31.740Z,61.05
2018-03-21T19:14:01.137Z,61.43
2018-03-21T19:16:31.327Z,61.55
2018-03-21T19:19:00.317Z,60.80
2018-03-21T19:21:30.413Z,60.49
2018-03-21T19:23:59.702Z,61.04
2018-03-21T19:26:28.784Z,61.00
2018-03-21T19:28:57.959Z,60.91
2018-03-21T19:31:26.894Z,60.74
2018-03-21T19:33:58.277Z,60.83
2018-03-21T19:36:27.750Z,61.53
2018-03-21T19:38:57.484Z,61.64
2018-03-21T19:41:26.751Z,61.51
2018-03-21T19:43:56.090Z,60.53
2018-03-21T19:46:28.297Z,60.99
2018-03-21T19:48:59.853Z,60.88
2018-03-21T19:51:29.648Z,61.35
2018-03-21T19:54:00.008Z,60.70
2018-03-21T19:56:29.446Z,60.59
2018-03-21T19:58:59.037Z,60.43
2018-03-21T20:01:29.756Z,61.38
2018-03-21T20:04:01.147Z,61.66
2018-03-21T20:06:30.269Z,61.07
2018-03-21T20:08:59.465Z,61.46
2018-03-21T20:11:28.498Z,60.90
2018-03-21T20:13:57.615Z,60.91
2018-03-21T20:16:26.848Z,61.11
2018-03-21T20:18:57.458Z,60.51
2018-03-21T20:21:26.635Z,60.79
2018-03-21T20:23:55.827Z,59.93
2018-03-21T20:26:25.583Z,59.79
2018-03-21T20:28:55.915Z,59.45
2018-03-21T20:31:26.047Z,58.61
2018-03-21T20:33:56.861Z,58.81
2018-03-21T20:36:26.261Z,59.02
2018-03-21T20:38:55.728Z,59.08
2018-03-21T20:41:26.084Z,58.33
2018-03-21T20:43:55.422Z,58.17
2018-03-21T20:46:25.488Z,57.25
2018-03-21T20:48:54.562Z,56.96
2018-03-21T20:51:24.277Z,56.94
2018-03-21T20:53:54.173Z,56.41
2018-03-21T20:56:23.632Z,57.17
2018-03-21T20:58:52.746Z,57.40
2018-03-21T21:01:23.278Z,56.62
2018-03-21T21:03:53.491Z,56.39
2018-03-21T21:06:22.767Z,55.87
2018-03-21T21:08:51.664Z,55.42
2018-03-21T21:11:21.229Z,55.00
2018-03-21T21:13:59.741Z,55.49
2018-03-21T21:16:28.586Z,55.40
2018-03-21T21:18:58.508Z,55.42
2018-03-21T21:21:28.685Z,55.46
2018-03-21T21:23:58.141Z,56.42
2018-03-21T21:26:27.033Z,56.40
2018-03-21T21:28:55.879Z,56.90
2018-03-21T21:31:24.714Z,56.78
2018-03-21T21:33:54.235Z,57.00
2018-03-21T21:36:23.081Z,57.26
2018-03-21T21:38:52.090Z,57.42
2018-03-21T21:41:21.218Z,58.33
2018-03-21T21:43:52.382Z,58.56
2018-03-21T21:46:21.235Z,58.35
2018-03-21T21:48:50.871Z,59.27
2018-03-21T21:51:19.862Z,59.19
2018-03-21T21:53:48.739Z,58.73
2018-03-21T21:56:17.443Z,58.98
2018-03-21T21:58:46.165Z,59.23
2018-03-21T22:01:15.255Z,59.14
2018-03-21T22:03:44.227Z,59.18
2018-03-21T22:06:13.817Z,59.67
2018-03-21T22:08:42.554Z,59.66
2018-03-21T22:11:11.527Z,59.76
2018-03-21T22:13:41.329Z,60.43
2018-03-21T22:16:11.251Z,60.62
2018-03-21T22:18:39.907Z,60.44
2018-03-21T22:21:09.060Z,60.77
2018-03-21T22:23:37.751Z,60.60
2018-03-21T22:26:06.550Z,61.10
2018-03-21T22:28:35.700Z,61.30
2018-03-21T22:31:04.581Z,61.37
2018-03-21T22:33:33.626Z,61.59
2018-03-21T22:36:02.446Z,62.19
2018-03-21T22:38:31.119Z,62.54
2018-03-21T22:40:59.984Z,62.19
2018-03-21T22:43:29.703Z,61.90
2018-03-21T22:45:59.767Z,62.53
2018-03-21T22:48:28.654Z,62.69
2018-03-21T22:50:58.110Z,63.16
2018-03-21T22:53:26.854Z,63.70
2018-03-21T22:55:55.820Z,63.49
2018-03-21T22:58:24.589Z,63.79
2018-03-21T23:00:53.277Z,64.11
2018-03-21T23:03:21.973Z,64.14
2018-03-21T23:05:50.843Z,64.30
2018-03-21T23:08:20.430Z,64.80
2018-03-21T23:10:48.994Z,64.88
2018-03-21T23:13:17.817Z,64.61
2018-03-21T23:15:47.875Z,64.79
2018-03-21T23:18:17.223Z,64.65
2018-03-21T23:20:45.888Z,64.34
2018-03-21T23:23:14.499Z,64.47
2018-03-21T23:25:43.109Z,65.30
2018-03-21T23:28:11.781Z,65.98
2018-03-21T23:30:40.546Z,65.79
2018-03-21T23:33:09.211Z,66.14
2018-03-21T23:35:37.890Z,66.08
2018-03-21T23:38:07.229Z,66.10
2018-03-21T23:40:35.961Z,66.23
2018-03-21T23:43:04.621Z,66.30
2018-03-21T23:45:33.405Z,65.02
2018-03-21T23:48:02.327Z,64.41
2018-03-21T23:50:31.607Z,63.98
2018-03-21T23:53:00.663Z,64.31
2018-03-21T23:55:29.321Z,63.66
2018-03-21T23:57:57.930Z,63.58
